Pagrindinis puslapis
METAR-TAF:

METAR-TAF

Oro uostai :

Skaka, Saudo Arabija

platuma: 29-47N, ilguma: 040-06E, Aukštis: 689 m

Dabartinis oras

Ataskaita buvo paskelbta 1 valandą ir 0 minutes, ne 09:00 UTC
Vėjas 17 kt iš Vakarų/Šiaurės Vakarų
Temperatūra 15°C
Drėgmė 51%
Slėgis 1023 hPa
Matomumas 10 km arba daugiau
Išsisklaidę debesys ne aukštis 3000 ft

METAR: OESK 260900Z 30017KT 9999 SCT030 15/05 Q1023

Laikas: 13:00 (10:00 UTC)

Prognozė

Ataskaita buvo paskelbta 11 valandos ir 0 minutes, ne 23:00 UTC
Prognozė galioja nuo 26 metu 00 UTC su 27 metu 06 UTC
Vėjas 10 kt iš Vakarų
Matomumas: 7000 m
Išsisklaidę debesys ne aukštis 4000 ft
Laikinai
nuo 26 metu 00 UTC su 26 metu 06 UTC
Matomumas: 3000 m
Išsisklaidę debesys ne aukštis 2000 ft
rūkana, migla
Tapsmas
nuo 26 metu 06 UTC su 26 metu 08 UTC
Vėjas 15 kt iš Vakarų/Šiaurės Vakarų
Laikinai
nuo 26 metu 06 UTC su 26 metu 14 UTC
Matomumas: 3500 m
Dulkes pustymas

TAF: OESK 252300Z 2600/2706 26010KT 7000 SCT040 TEMPO 2600/2606 3000 BR HZ SCT020 BECMG 2606/2608 30015KT TEMPO 2606/2614 3500 BLDU

Orai ataskaitas ir orų prognozės (METAR, TAF).

turimą stotys yra geltonos ir raudonos taškus žemėlapyje.

Perkelti pele per norėdami pamatyti stoties vardą.

Tada spustelėkite, norėdami matyti oro stebėjimo ir prognozės.

Norėdami pakeisti žemėlapį: spustelėkite ant žalios mygtukų su juodo kryžiaus žemyn,; žalią mygtuką su brūkšneliu, jei norite nutolinti; arba žalių rodyklių gretimoms žemėlapius.


METAR-TAF: